createdAt,value
2016-03-29T00:00:04.302Z,61.61
2016-03-29T00:01:04.336Z,61.67
2016-03-29T00:02:04.355Z,61.19
2016-03-29T00:03:04.342Z,61.19
2016-03-29T00:04:04.361Z,60.72
2016-03-29T00:05:04.410Z,61.48
2016-03-29T00:06:04.397Z,61.77
2016-03-29T00:07:04.400Z,61.77
2016-03-29T00:08:04.417Z,61.77
2016-03-29T00:09:04.420Z,62.05
2016-03-29T00:10:04.438Z,61.96
2016-03-29T00:11:04.458Z,61.77
2016-03-29T00:12:04.475Z,62.53
2016-03-29T00:13:04.478Z,62.62
2016-03-29T00:14:04.497Z,61.86
2016-03-29T00:15:04.515Z,62.62
2016-03-29T00:16:04.532Z,62.53
2016-03-29T00:17:04.535Z,62.53
2016-03-29T00:18:04.554Z,62.43
2016-03-29T00:19:04.572Z,63.29
2016-03-29T00:20:04.574Z,62.24
2016-03-29T00:21:04.593Z,62.53
2016-03-29T00:22:04.612Z,63.01
2016-03-29T00:23:04.629Z,62.81
2016-03-29T00:24:04.649Z,63.1
2016-03-29T00:25:04.667Z,63.35
2016-03-29T00:26:04.670Z,63.64
2016-03-29T00:27:04.687Z,63.83
2016-03-29T00:28:04.706Z,64.02
2016-03-29T00:29:04.709Z,63.45
2016-03-29T00:30:04.726Z,63.64
2016-03-29T00:31:04.745Z,63.83
2016-03-29T00:32:04.747Z,63.73
2016-03-29T00:33:04.767Z,64.4
2016-03-29T00:34:04.784Z,64.69
2016-03-29T00:35:04.787Z,64.78
2016-03-29T00:36:04.806Z,65.16
2016-03-29T00:37:04.824Z,64.5
2016-03-29T00:38:04.827Z,63.92
2016-03-29T00:39:04.844Z,64.31
2016-03-29T00:40:04.879Z,64.31
2016-03-29T00:41:04.897Z,64.4
2016-03-29T00:42:04.916Z,65.16
2016-03-29T00:43:04.933Z,65.16
2016-03-29T00:44:04.921Z,64.4
2016-03-29T00:45:04.939Z,64.31
2016-03-29T00:46:04.941Z,64.97
2016-03-29T00:47:04.961Z,64.87
2016-03-29T00:48:04.979Z,64.78
2016-03-29T00:49:04.982Z,64.31
2016-03-29T00:50:05.015Z,64.94
2016-03-29T00:51:05.033Z,65.13
2016-03-29T00:52:05.052Z,65.32
2016-03-29T00:53:05.054Z,64.75
2016-03-29T00:54:05.057Z,65.8
2016-03-29T00:55:05.091Z,65.51
2016-03-29T00:56:05.110Z,65.6
2016-03-29T00:57:05.096Z,64.46
2016-03-29T00:58:05.115Z,64.84
2016-03-29T00:59:05.118Z,64.84
2016-03-29T01:00:05.136Z,65.13
2016-03-29T01:01:05.153Z,65.51
2016-03-29T01:02:05.173Z,66.17
2016-03-29T01:03:05.175Z,65.7
2016-03-29T01:04:05.193Z,65.22
2016-03-29T01:05:05.055Z,65.7
2016-03-29T01:06:05.214Z,65.8
2016-03-29T01:07:05.248Z,65.8
2016-03-29T01:08:05.241Z,65.41
2016-03-29T01:09:05.258Z,65.6
2016-03-29T01:10:05.292Z,65.89
2016-03-29T01:11:05.295Z,65.8
2016-03-29T01:12:05.297Z,65.8
2016-03-29T01:13:05.316Z,65.99
2016-03-29T01:14:05.335Z,65.7
2016-03-29T01:15:05.338Z,65.41
2016-03-29T01:16:05.355Z,64.56
2016-03-29T01:17:05.390Z,65.03
2016-03-29T01:18:05.393Z,64.94
2016-03-29T01:19:05.395Z,65.03
2016-03-29T01:20:05.413Z,64.94
2016-03-29T01:21:05.415Z,64.46
2016-03-29T01:22:05.435Z,64.18
2016-03-29T01:23:05.452Z,63.99
2016-03-29T01:24:05.471Z,64.08
2016-03-29T01:25:05.520Z,64.08
2016-03-29T01:26:05.507Z,64.18
2016-03-29T01:27:05.495Z,64.56
2016-03-29T01:28:05.512Z,64.65
2016-03-29T01:29:05.531Z,64.56
2016-03-29T01:30:05.550Z,64.56
2016-03-29T01:31:05.583Z,63.99
2016-03-29T01:32:05.601Z,64.27
2016-03-29T01:33:05.573Z,63.6
2016-03-29T01:34:05.607Z,63.7
2016-03-29T01:35:05.609Z,63.32
2016-03-29T01:36:05.643Z,63.51
2016-03-29T01:37:05.630Z,64.46
2016-03-29T01:38:05.649Z,63.79
2016-03-29T01:39:05.667Z,64.46
2016-03-29T01:40:05.669Z,63.7
2016-03-29T01:41:05.672Z,63.89
2016-03-29T01:42:05.707Z,64.18
2016-03-29T01:43:05.725Z,63.6
2016-03-29T01:44:05.743Z,63.42
2016-03-29T01:45:05.746Z,63.23
2016-03-29T01:46:05.749Z,63.42
2016-03-29T01:47:05.766Z,62.94
2016-03-29T01:48:05.785Z,63.42
2016-03-29T01:49:05.787Z,63.04
2016-03-29T01:50:05.807Z,63.79
2016-03-29T01:51:05.668Z,64.08
2016-03-29T01:52:05.827Z,64.18
2016-03-29T01:53:05.877Z,64.27
2016-03-29T01:54:05.864Z,64.37
2016-03-29T01:55:05.882Z,64.65
2016-03-29T01:56:05.900Z,63.79
2016-03-29T01:57:05.904Z,63.42
2016-03-29T01:58:05.906Z,63.6
2016-03-29T01:59:05.784Z,63.13
2016-03-29T02:00:05.942Z,63.99
2016-03-29T02:01:05.961Z,64.18
2016-03-29T02:02:05.964Z,63.6
2016-03-29T02:03:05.981Z,62.94
2016-03-29T02:04:05.984Z,62.56
2016-03-29T02:05:06.003Z,62.65
2016-03-29T02:06:06.006Z,62.27
2016-03-29T02:07:06.024Z,62.37
2016-03-29T02:08:06.042Z,61.9
2016-03-29T02:09:06.061Z,61.52
2016-03-29T02:10:06.079Z,61.23
2016-03-29T02:11:06.144Z,61.61
2016-03-29T02:12:06.099Z,61.42
2016-03-29T02:13:06.118Z,61.32
2016-03-29T02:14:06.136Z,61.99
2016-03-29T02:15:06.155Z,61.8
2016-03-29T02:16:06.158Z,61.55
2016-03-29T02:17:06.177Z,61.64
2016-03-29T02:18:06.179Z,61.45
2016-03-29T02:19:06.196Z,61.45
2016-03-29T02:20:06.215Z,61.16
2016-03-29T02:21:06.218Z,61.55
2016-03-29T02:22:06.235Z,61.45
2016-03-29T02:23:06.254Z,61.35
2016-03-29T02:24:06.256Z,60.69
2016-03-29T02:25:06.276Z,60.41
2016-03-29T02:26:06.200Z,60.31
2016-03-29T02:27:06.296Z,60.21
2016-03-29T02:28:06.315Z,60.94
2016-03-29T02:29:06.348Z,60.94
2016-03-29T02:30:06.351Z,61.23
2016-03-29T02:31:06.353Z,61.32
2016-03-29T02:32:06.372Z,61.61
2016-03-29T02:33:06.390Z,61.23
2016-03-29T02:34:06.393Z,61.04
2016-03-29T02:35:06.411Z,61.13
2016-03-29T02:36:06.430Z,61.32
2016-03-29T02:37:06.448Z,61.61
2016-03-29T02:38:06.450Z,61.99
2016-03-29T02:39:06.453Z,61.8
2016-03-29T02:40:06.488Z,61.9
2016-03-29T02:41:06.491Z,61.71
2016-03-29T02:42:06.493Z,61.52
2016-03-29T02:43:06.527Z,61.52
2016-03-29T02:44:06.530Z,61.42
2016-03-29T02:45:06.548Z,62.37
2016-03-29T02:46:06.550Z,61.52
2016-03-29T02:47:06.568Z,61.52
2016-03-29T02:48:06.588Z,61.42
2016-03-29T02:49:06.605Z,61.61
2016-03-29T02:50:06.608Z,60.57
2016-03-29T02:51:06.627Z,60.18
2016-03-29T02:52:06.646Z,60.18
2016-03-29T02:53:06.648Z,60.28
2016-03-29T02:54:06.665Z,60.38
2016-03-29T02:55:06.684Z,60.28
2016-03-29T02:56:06.734Z,60.21
2016-03-29T02:57:06.705Z,59.55
2016-03-29T02:58:06.723Z,59.27
2016-03-29T02:59:06.726Z,58.98
2016-03-29T03:00:06.745Z,58.69
2016-03-29T03:01:06.763Z,58.69
2016-03-29T03:02:06.781Z,58.88
2016-03-29T03:03:06.784Z,58.69
2016-03-29T03:04:06.803Z,58.22
2016-03-29T03:05:06.836Z,58.22
2016-03-29T03:06:06.823Z,58.12
2016-03-29T03:07:06.842Z,58.22
2016-03-29T03:08:06.845Z,58.12
2016-03-29T03:09:06.862Z,58.03
2016-03-29T03:10:06.880Z,57.65
2016-03-29T03:11:06.899Z,58.31
2016-03-29T03:12:06.902Z,58.03
2016-03-29T03:13:06.919Z,57.74
2016-03-29T03:14:06.922Z,57.65
2016-03-29T03:15:06.941Z,57.55
2016-03-29T03:16:06.975Z,56.98
2016-03-29T03:17:06.977Z,57.17
2016-03-29T03:18:06.996Z,57.93
2016-03-29T03:19:06.999Z,58.03
2016-03-29T03:20:07.032Z,57.93
2016-03-29T03:21:07.019Z,57.84
2016-03-29T03:22:07.037Z,58.22
2016-03-29T03:23:07.057Z,58.12
2016-03-29T03:24:07.059Z,58.31
2016-03-29T03:25:07.077Z,58.22
2016-03-29T03:26:07.096Z,57.55
2016-03-29T03:27:07.114Z,56.98
2016-03-29T03:28:07.117Z,57.07
2016-03-29T03:29:07.134Z,56.98
2016-03-29T03:30:07.153Z,56.98
2016-03-29T03:31:07.156Z,57.17
2016-03-29T03:32:07.174Z,57.01
2016-03-29T03:33:07.192Z,57.2
2016-03-29T03:34:07.195Z,57.39
2016-03-29T03:35:07.214Z,57.01
2016-03-29T03:36:07.231Z,57.48
2016-03-29T03:37:07.251Z,56.92
2016-03-29T03:38:07.253Z,56.72
2016-03-29T03:39:07.272Z,55.87
2016-03-29T03:40:07.289Z,57.2
2016-03-29T03:41:07.323Z,57.1
2016-03-29T03:42:07.311Z,57.2
2016-03-29T03:43:07.328Z,56.44
2016-03-29T03:44:07.331Z,56.44
2016-03-29T03:45:07.349Z,56.72
2016-03-29T03:46:07.369Z,56.72
2016-03-29T03:47:07.386Z,56.05
2016-03-29T03:48:07.405Z,57.2
2016-03-29T03:49:07.424Z,56.44
2016-03-29T03:50:07.426Z,57.2
2016-03-29T03:51:07.444Z,58.15
2016-03-29T03:52:07.462Z,57.2
2016-03-29T03:53:07.481Z,58.08
2016-03-29T03:54:07.499Z,58.47
2016-03-29T03:55:07.517Z,57.04
2016-03-29T03:56:07.520Z,57.13
2016-03-29T03:57:07.523Z,57.89
2016-03-29T03:58:07.540Z,57.8
2016-03-29T03:59:07.544Z,57.42
2016-03-29T04:00:07.578Z,57.42
2016-03-29T04:01:07.581Z,58.18
2016-03-29T04:02:07.598Z,57.32
2016-03-29T04:03:07.632Z,57.13
2016-03-29T04:04:07.620Z,55.8
2016-03-29T04:05:07.653Z,55.22
2016-03-29T04:06:07.656Z,55.9
2016-03-29T04:07:07.674Z,55.7
2016-03-29T04:08:07.678Z,56.37
2016-03-29T04:09:07.695Z,56.09
2016-03-29T04:10:07.745Z,55.61
2016-03-29T04:11:07.733Z,55.9
2016-03-29T04:12:07.735Z,55.61
2016-03-29T04:13:07.753Z,55.61
2016-03-29T04:14:07.772Z,55.9
2016-03-29T04:15:07.633Z,55.51
2016-03-29T04:16:07.808Z,56.27
2016-03-29T04:17:07.826Z,55.9
2016-03-29T04:18:07.830Z,55.61
2016-03-29T04:19:07.863Z,55.7
2016-03-29T04:20:07.866Z,56.46
2016-03-29T04:21:07.885Z,56.18
2016-03-29T04:22:07.887Z,56.56
2016-03-29T04:23:07.921Z,57.13
2016-03-29T04:24:08.001Z,56.75
2016-03-29T04:25:07.957Z,56.65
2016-03-29T04:26:07.944Z,56.75
2016-03-29T04:27:07.963Z,55.99
2016-03-29T04:28:07.982Z,55.51
2016-03-29T04:29:07.984Z,55.61
2016-03-29T04:30:08.002Z,55.7
2016-03-29T04:31:08.021Z,56.37
2016-03-29T04:32:08.039Z,56.75
2016-03-29T04:33:08.057Z,56.75
2016-03-29T04:34:08.060Z,56.85
2016-03-29T04:35:08.078Z,57.04
2016-03-29T04:36:08.096Z,57.23
2016-03-29T04:37:08.099Z,57.13
2016-03-29T04:38:08.133Z,56.94
2016-03-29T04:39:08.167Z,57.42
2016-03-29T04:40:08.170Z,57.67
2016-03-29T04:41:08.173Z,57.48
2016-03-29T04:42:08.175Z,57.99
2016-03-29T04:43:08.194Z,57.87
2016-03-29T04:44:08.211Z,57.96
2016-03-29T04:45:08.277Z,57.96
2016-03-29T04:46:08.264Z,58.06
2016-03-29T04:47:08.248Z,58.44
2016-03-29T04:48:08.300Z,58.25
2016-03-29T04:49:08.303Z,58.18
2016-03-29T04:50:08.322Z,58.37
2016-03-29T04:51:08.340Z,57.8
2016-03-29T04:52:08.343Z,57.8
2016-03-29T04:53:08.377Z,58.37
2016-03-29T04:54:08.411Z,58.47
2016-03-29T04:55:08.397Z,58.75
2016-03-29T04:56:08.416Z,58.94
2016-03-29T04:57:08.403Z,58.75
2016-03-29T04:58:08.406Z,58.84
2016-03-29T04:59:08.424Z,59.42
2016-03-29T05:00:08.443Z,61.86
2016-03-29T05:01:08.460Z,63.29
2016-03-29T05:02:08.463Z,63.96
2016-03-29T05:03:08.482Z,64.81
2016-03-29T05:04:08.484Z,65.58
2016-03-29T05:05:08.517Z,63.86
2016-03-29T05:06:08.521Z,63.1
2016-03-29T05:07:08.539Z,64.62
2016-03-29T05:08:08.557Z,65.77
2016-03-29T05:09:08.560Z,65.95
2016-03-29T05:10:08.579Z,66.91
2016-03-29T05:11:08.612Z,66.62
2016-03-29T05:12:08.614Z,66.81
2016-03-29T05:13:08.618Z,66.05
2016-03-29T05:14:08.652Z,65.77
2016-03-29T05:15:08.654Z,66.81
2016-03-29T05:16:08.672Z,67.57
2016-03-29T05:17:08.691Z,67.47
2016-03-29T05:18:08.694Z,67.29
2016-03-29T05:19:08.711Z,67.76
2016-03-29T05:20:08.731Z,67.67
2016-03-29T05:21:08.749Z,67.57
2016-03-29T05:22:08.752Z,67.67
2016-03-29T05:23:08.769Z,67.86
2016-03-29T05:24:08.788Z,67.44
2016-03-29T05:25:08.791Z,69.57
2016-03-29T05:26:08.809Z,69.63
2016-03-29T05:27:08.827Z,70.1
2016-03-29T05:28:08.846Z,71.06
2016-03-29T05:29:08.849Z,72.11
2016-03-29T05:30:08.867Z,72.77
2016-03-29T05:31:08.869Z,73.15
2016-03-29T05:32:08.888Z,73.25
2016-03-29T05:33:08.906Z,73.53
2016-03-29T05:34:08.924Z,73.91
2016-03-29T05:35:08.926Z,74.87
2016-03-29T05:36:08.946Z,74.96
2016-03-29T05:37:08.964Z,74.16
2016-03-29T05:38:08.966Z,74.73
2016-03-29T05:39:08.984Z,75.02
2016-03-29T05:40:09.003Z,74.73
2016-03-29T05:41:09.020Z,74.82
2016-03-29T05:42:09.023Z,74.54
2016-03-29T05:43:09.042Z,73.4
2016-03-29T05:44:09.075Z,74.63
2016-03-29T05:45:09.078Z,75.21
2016-03-29T05:46:09.081Z,75.49
2016-03-29T05:47:09.116Z,73.88
2016-03-29T05:48:09.118Z,73.27
2016-03-29T05:49:09.121Z,74.44
2016-03-29T05:50:09.138Z,75.4
2016-03-29T05:51:09.158Z,75.36
2016-03-29T05:52:09.160Z,74.54
2016-03-29T05:53:09.178Z,74.98
2016-03-29T05:54:09.197Z,74.82
2016-03-29T05:55:09.200Z,74.82
2016-03-29T05:56:09.218Z,74.44
2016-03-29T05:57:09.235Z,74.63
2016-03-29T05:58:09.270Z,75.02
2016-03-29T05:59:09.288Z,74.82
2016-03-29T06:00:09.275Z,74.92
2016-03-29T06:01:09.293Z,73.69
2016-03-29T06:02:09.296Z,73.49
2016-03-29T06:03:09.299Z,73.21
2016-03-29T06:04:09.318Z,73.78
2016-03-29T06:05:09.335Z,73.11
2016-03-29T06:06:09.354Z,73.21
2016-03-29T06:07:09.357Z,72.64
2016-03-29T06:08:09.375Z,73.02
2016-03-29T06:09:09.393Z,72.07
2016-03-29T06:10:09.399Z,72.35
2016-03-29T06:11:09.419Z,72.55
2016-03-29T06:12:09.436Z,72.55
2016-03-29T06:13:09.439Z,72.83
2016-03-29T06:14:09.458Z,72.83
2016-03-29T06:15:09.476Z,72.45
2016-03-29T06:16:09.479Z,72.26
2016-03-29T06:17:09.496Z,71.78
2016-03-29T06:18:09.516Z,71.12
2016-03-29T06:19:09.534Z,71.44
2016-03-29T06:20:09.552Z,70.2
2016-03-29T06:21:09.554Z,70.68
2016-03-29T06:22:09.573Z,70.39
2016-03-29T06:23:09.575Z,70.3
2016-03-29T06:24:09.593Z,70.2
2016-03-29T06:25:09.596Z,70.2
2016-03-29T06:26:09.615Z,70.68
2016-03-29T06:27:09.633Z,70.49
2016-03-29T06:28:09.636Z,71.06
2016-03-29T06:29:09.653Z,71.15
2016-03-29T06:30:09.673Z,71.34
2016-03-29T06:31:09.675Z,70.1
2016-03-29T06:32:09.694Z,70.1
2016-03-29T06:33:09.711Z,70.49
2016-03-29T06:34:09.714Z,70.2
2016-03-29T06:35:09.733Z,70.1
2016-03-29T06:36:09.750Z,69.25
2016-03-29T06:37:09.770Z,69.35
2016-03-29T06:38:09.772Z,69.25
2016-03-29T06:39:09.791Z,68.68
2016-03-29T06:40:09.808Z,69.44
2016-03-29T06:41:09.827Z,68.59
2016-03-29T06:42:09.830Z,68.49
2016-03-29T06:43:09.848Z,68.59
2016-03-29T06:44:09.866Z,69.15
2016-03-29T06:45:09.868Z,69.73
2016-03-29T06:46:09.888Z,69.06
2016-03-29T06:47:09.905Z,69.67
2016-03-29T06:48:09.908Z,69.57
2016-03-29T06:49:09.927Z,69.38
2016-03-29T06:50:09.945Z,69.19
2016-03-29T06:51:09.963Z,68.62
2016-03-29T06:52:09.966Z,69.29
2016-03-29T06:53:09.985Z,69.67
2016-03-29T06:54:09.978Z,68.71
2016-03-29T06:55:09.979Z,68.56
2016-03-29T06:56:09.981Z,65.92
2016-03-29T06:57:09.982Z,64.24
2016-03-29T06:58:09.983Z,62.43
2016-03-29T06:59:09.983Z,63.48
2016-03-29T07:00:09.989Z,63.39
2016-03-29T07:01:10.001Z,63.1
2016-03-29T07:02:10.013Z,63.67
2016-03-29T07:03:10.025Z,65.48
2016-03-29T07:04:10.022Z,65.86
2016-03-29T07:05:10.036Z,65.67
2016-03-29T07:06:10.099Z,65.73
2016-03-29T07:07:10.068Z,65.92
2016-03-29T07:08:10.069Z,65.55
2016-03-29T07:09:10.101Z,66.02
2016-03-29T07:10:10.118Z,65.16
2016-03-29T07:11:10.120Z,64.91
2016-03-29T07:12:10.136Z,63.86
2016-03-29T07:13:10.154Z,62.18
2016-03-29T07:14:10.173Z,60.58
2016-03-29T07:15:10.189Z,60.24
2016-03-29T07:16:10.207Z,60.81
2016-03-29T07:17:10.225Z,60.3
2016-03-29T07:18:10.259Z,59.73
2016-03-29T07:19:10.246Z,58.48
2016-03-29T07:20:10.264Z,59.34
2016-03-29T07:21:10.282Z,60.39
2016-03-29T07:22:10.301Z,60.97
2016-03-29T07:23:10.319Z,60.02
2016-03-29T07:24:10.352Z,60.97
2016-03-29T07:25:10.356Z,60.46
2016-03-29T07:26:10.359Z,59.51
2016-03-29T07:27:10.376Z,59.7
2016-03-29T07:28:10.411Z,59.89
2016-03-29T07:29:10.428Z,60.46
2016-03-29T07:30:10.431Z,61.6
2016-03-29T07:31:10.450Z,62.08
2016-03-29T07:32:10.468Z,61.38
2016-03-29T07:33:10.486Z,61.29
2016-03-29T07:34:10.489Z,61.96
2016-03-29T07:35:10.507Z,61.86
2016-03-29T07:36:10.525Z,62.05
2016-03-29T07:37:10.544Z,62.15
2016-03-29T07:38:10.563Z,61.6
2016-03-29T07:39:10.581Z,60.84
2016-03-29T07:40:10.615Z,59.99
2016-03-29T07:41:10.618Z,58.58
2016-03-29T07:42:10.636Z,58.2
2016-03-29T07:43:10.654Z,58.97
2016-03-29T07:44:10.657Z,59.44
2016-03-29T07:45:10.674Z,58.39
2016-03-29T07:46:10.693Z,58.39
2016-03-29T07:47:10.712Z,58.39
2016-03-29T07:48:10.730Z,58.58
2016-03-29T07:49:10.732Z,57.06
2016-03-29T07:50:10.752Z,55.94
2016-03-29T07:51:10.801Z,53.58
2016-03-29T07:52:10.804Z,51.89
2016-03-29T07:53:10.821Z,50.38
2016-03-29T07:54:10.841Z,48.66
2016-03-29T07:55:10.843Z,48.49
2016-03-29T07:56:10.861Z,47.44
2016-03-29T07:57:10.880Z,46.61
2016-03-29T07:58:10.914Z,47.56
2016-03-29T07:59:10.932Z,45.96
2016-03-29T08:00:10.935Z,43.66
2016-03-29T08:01:10.953Z,42.34
2016-03-29T08:02:10.987Z,41.4
2016-03-29T08:03:11.006Z,39.31
2016-03-29T08:04:11.023Z,38.93
2016-03-29T08:05:11.042Z,39.91
2016-03-29T08:06:11.061Z,39.16
2016-03-29T08:07:10.939Z,38.87
2016-03-29T08:08:11.097Z,38.41
2016-03-29T08:09:11.115Z,36.8
2016-03-29T08:10:11.197Z,34.41
2016-03-29T08:11:11.167Z,33.07
2016-03-29T08:12:11.186Z,33.54
2016-03-29T08:13:11.235Z,32.46
2016-03-29T08:14:11.238Z,35.03
2016-03-29T08:15:11.256Z,33.88
2016-03-29T08:16:11.291Z,35.89
2016-03-29T08:17:11.309Z,36.66
2016-03-29T08:18:11.343Z,35.71
2016-03-29T08:19:11.346Z,35.61
2016-03-29T08:20:11.379Z,35.89
2016-03-29T08:21:11.397Z,35.61
2016-03-29T08:22:11.432Z,36.46
2016-03-29T08:23:11.450Z,37.32
2016-03-29T08:24:11.469Z,38.07
2016-03-29T08:25:11.502Z,38.41
2016-03-29T08:26:11.505Z,38.89
2016-03-29T08:27:11.538Z,39.94
2016-03-29T08:28:11.573Z,41.46
2016-03-29T08:29:11.576Z,40.42
2016-03-29T08:30:11.594Z,40.42
2016-03-29T08:31:11.628Z,39.94
2016-03-29T08:32:11.646Z,39.94
2016-03-29T08:33:11.664Z,41.5
2016-03-29T08:34:11.698Z,41
2016-03-29T08:35:11.701Z,39.29
2016-03-29T08:36:11.735Z,38.79
2016-03-29T08:37:11.754Z,36.99
2016-03-29T08:38:11.787Z,37.97
2016-03-29T08:39:11.790Z,37.66
2016-03-29T08:40:11.823Z,38.34
2016-03-29T08:41:11.842Z,40.44
2016-03-29T08:42:11.861Z,38.24
2016-03-29T08:43:11.894Z,38.91
2016-03-29T08:44:11.897Z,38.98
2016-03-29T08:45:11.915Z,39.94
2016-03-29T08:46:11.934Z,40.42
2016-03-29T08:47:11.967Z,39.85
2016-03-29T08:48:11.986Z,41.19
2016-03-29T08:49:12.005Z,41.27
2016-03-29T08:50:12.022Z,41.07
2016-03-29T08:51:12.041Z,40.12
2016-03-29T08:52:12.059Z,41.07
2016-03-29T08:53:12.078Z,39.25
2016-03-29T08:54:12.096Z,39.25
2016-03-29T08:55:12.130Z,36.77
2016-03-29T08:56:12.149Z,37.8
2016-03-29T08:57:12.166Z,37.05
2016-03-29T08:58:12.185Z,37.82
2016-03-29T08:59:12.204Z,39.83
2016-03-29T09:00:12.221Z,40.29
2016-03-29T09:01:12.240Z,39.14
2016-03-29T09:02:12.257Z,41.05
2016-03-29T09:03:12.276Z,41.22
2016-03-29T09:04:12.310Z,38.47
2016-03-29T09:05:12.173Z,36.94
2016-03-29T09:06:12.333Z,36.17
2016-03-29T09:07:12.366Z,38.45
2016-03-29T09:08:12.385Z,38.93
2016-03-29T09:09:12.402Z,39.5
2016-03-29T09:10:12.421Z,39.79
2016-03-29T09:11:12.440Z,39.79
2016-03-29T09:12:12.457Z,41.61
2016-03-29T09:13:12.492Z,39.58
2016-03-29T09:14:12.572Z,41.61
2016-03-29T09:15:12.528Z,39.6
2016-03-29T09:16:12.546Z,39.39
2016-03-29T09:17:12.549Z,39.58
2016-03-29T09:18:12.584Z,39.39
2016-03-29T09:19:12.586Z,39.86
2016-03-29T09:20:12.604Z,39.6
2016-03-29T09:21:12.638Z,37.9
2016-03-29T09:22:12.642Z,38.95
2016-03-29T09:23:12.675Z,36.84
2016-03-29T09:24:12.693Z,38.37
2016-03-29T09:25:12.712Z,38.47
2016-03-29T09:26:12.777Z,38.26
2016-03-29T09:27:12.748Z,37.9
2016-03-29T09:28:12.766Z,38.95
2016-03-29T09:29:12.785Z,36.84
2016-03-29T09:30:12.802Z,38.37
2016-03-29T09:31:12.821Z,38.37
2016-03-29T09:32:12.855Z,38.37
2016-03-29T09:33:12.874Z,37.51
2016-03-29T09:34:12.892Z,39.64
2016-03-29T09:35:12.911Z,38.96
2016-03-29T09:36:12.929Z,38.49
2016-03-29T09:37:12.947Z,35.81
2016-03-29T09:38:12.965Z,36
2016-03-29T09:39:12.983Z,36.67
2016-03-29T09:40:12.846Z,35.71
2016-03-29T09:41:13.051Z,35.14
2016-03-29T09:42:13.163Z,36
2016-03-29T09:43:13.056Z,36
2016-03-29T09:44:13.075Z,34.94
2016-03-29T09:45:13.109Z,36.69
2016-03-29T09:46:13.132Z,36.04
2016-03-29T09:47:13.151Z,33.75
2016-03-29T09:48:13.184Z,33.47
2016-03-29T09:49:13.187Z,33.27
2016-03-29T09:50:13.205Z,33.94
2016-03-29T09:51:13.223Z,32.89
2016-03-29T09:52:13.242Z,31.74
2016-03-29T09:53:13.275Z,31.93
2016-03-29T09:54:13.279Z,33.37
2016-03-29T09:55:13.313Z,33.37
2016-03-29T09:56:13.347Z,32.31
2016-03-29T09:57:13.569Z,32.51
2016-03-29T09:58:13.367Z,33.08
2016-03-29T09:59:13.386Z,33.48
2016-03-29T10:00:13.419Z,32.33
2016-03-29T10:01:13.438Z,31.27
2016-03-29T10:02:13.456Z,31.37
2016-03-29T10:03:13.474Z,31.67
2016-03-29T10:04:13.508Z,31.48
2016-03-29T10:05:13.510Z,30.43
2016-03-29T10:06:13.546Z,30.14
2016-03-29T10:07:13.563Z,31
2016-03-29T10:08:13.582Z,33.21
2016-03-29T10:09:13.601Z,30.33
2016-03-29T10:10:13.634Z,30.73
2016-03-29T10:11:13.652Z,31.13
2016-03-29T10:12:13.779Z,27.58
2016-03-29T10:13:13.690Z,27.76
2016-03-29T10:14:13.723Z,27.19
2016-03-29T10:15:13.742Z,27.86
2016-03-29T10:16:13.760Z,25.46
2016-03-29T10:17:13.778Z,27.67
2016-03-29T10:18:13.812Z,27.58
2016-03-29T10:19:13.846Z,28.72
2016-03-29T10:20:13.848Z,27.66
2016-03-29T10:21:13.883Z,28.52
2016-03-29T10:22:13.900Z,27.84
2016-03-29T10:23:13.919Z,27.37
2016-03-29T10:24:13.953Z,27.27
2016-03-29T10:25:13.972Z,27.67
2016-03-29T10:26:14.006Z,28.44
2016-03-29T10:27:14.133Z,29.11
2016-03-29T10:28:14.058Z,27.59
2016-03-29T10:29:14.075Z,26.05
2016-03-29T10:30:14.297Z,25.38
2016-03-29T10:31:14.127Z,25.94
2016-03-29T10:32:14.146Z,25.93
2016-03-29T10:33:14.165Z,25.35
2016-03-29T10:34:14.198Z,24.57
2016-03-29T10:35:14.216Z,26.49
2016-03-29T10:36:14.235Z,25.72
2016-03-29T10:37:14.253Z,25.53
2016-03-29T10:38:14.287Z,25.43
2016-03-29T10:39:14.306Z,25.34
2016-03-29T10:40:14.324Z,25.43
2016-03-29T10:41:14.343Z,27.34
2016-03-29T10:42:14.548Z,26.48
2016-03-29T10:43:14.395Z,27.45
2016-03-29T10:44:14.428Z,26.59
2016-03-29T10:45:14.447Z,27.64
2016-03-29T10:46:14.590Z,26.4
2016-03-29T10:47:14.498Z,26.5
2016-03-29T10:48:14.517Z,24.58
2016-03-29T10:49:14.536Z,26.12
2016-03-29T10:50:14.569Z,25.46
2016-03-29T10:51:14.603Z,25.45
2016-03-29T10:52:14.622Z,24.4
2016-03-29T10:53:14.625Z,24.68
2016-03-29T10:54:14.658Z,24.77
2016-03-29T10:55:14.678Z,23.73
2016-03-29T10:56:14.711Z,23.73
2016-03-29T10:57:14.745Z,24.5
2016-03-29T10:58:14.794Z,24.88
2016-03-29T10:59:14.782Z,24.98
2016-03-29T11:00:14.784Z,23.63
2016-03-29T11:01:14.834Z,23.91
2016-03-29T11:02:14.852Z,24.09
2016-03-29T11:03:14.855Z,24.48
2016-03-29T11:04:14.889Z,25.34
2016-03-29T11:05:14.922Z,25.43
2016-03-29T11:06:14.972Z,24.77
2016-03-29T11:07:14.974Z,24.68
2016-03-29T11:08:14.993Z,24.01
2016-03-29T11:09:15.012Z,25.05
2016-03-29T11:10:15.030Z,25.43
2016-03-29T11:11:15.095Z,25.05
2016-03-29T11:12:15.098Z,25.82
2016-03-29T11:13:15.101Z,25.24
2016-03-29T11:14:15.118Z,26.49
2016-03-29T11:15:15.153Z,27.08
2016-03-29T11:16:15.170Z,24.3
2016-03-29T11:17:15.220Z,24.5
2016-03-29T11:18:15.223Z,23.93
2016-03-29T11:19:15.242Z,23.65
2016-03-29T11:20:15.276Z,23.46
2016-03-29T11:21:15.294Z,22.77
2016-03-29T11:22:15.328Z,22.39
2016-03-29T11:23:15.346Z,23.55
2016-03-29T11:24:15.364Z,21.92
2016-03-29T11:25:15.383Z,21.53
2016-03-29T11:26:15.401Z,21.92
2016-03-29T11:27:15.436Z,23.36
2016-03-29T11:28:15.470Z,23.15
2016-03-29T11:29:15.519Z,23.36
2016-03-29T11:30:15.506Z,22.69
2016-03-29T11:31:15.539Z,21.62
2016-03-29T11:32:15.558Z,22.48
2016-03-29T11:33:15.577Z,23.15
2016-03-29T11:34:15.610Z,21.14
2016-03-29T11:35:15.628Z,22.67
2016-03-29T11:36:15.646Z,23.06
2016-03-29T11:37:15.666Z,23.73
2016-03-29T11:38:15.699Z,21.52
2016-03-29T11:39:15.733Z,22.78
2016-03-29T11:40:15.752Z,22.67
2016-03-29T11:41:15.769Z,22.78
2016-03-29T11:42:15.851Z,23.16
2016-03-29T11:43:15.821Z,21.34
2016-03-29T11:44:15.840Z,22.41
2016-03-29T11:45:15.873Z,21.83
2016-03-29T11:46:15.892Z,21.64
2016-03-29T11:47:15.910Z,20.97
2016-03-29T11:48:15.959Z,21.92
2016-03-29T11:49:15.962Z,21.25
2016-03-29T11:50:15.997Z,22.5
2016-03-29T11:51:16.000Z,22.6
2016-03-29T11:52:16.142Z,20.97
2016-03-29T11:53:16.051Z,20.3
2016-03-29T11:54:16.086Z,20.88
2016-03-29T11:55:16.104Z,20.87
2016-03-29T11:56:16.139Z,20.78
2016-03-29T11:57:16.203Z,21.75
2016-03-29T11:58:16.190Z,20.01
2016-03-29T11:59:16.208Z,19.05
2016-03-29T12:00:16.242Z,19.63
2016-03-29T12:01:16.245Z,21.75
2016-03-29T12:02:16.280Z,20.5
2016-03-29T12:03:16.297Z,20.21
2016-03-29T12:04:16.316Z,19.15
2016-03-29T12:05:16.349Z,19.92
2016-03-29T12:06:16.368Z,20.2
2016-03-29T12:07:16.399Z,20.97
2016-03-29T12:08:16.418Z,20.02
2016-03-29T12:09:16.451Z,19.35
2016-03-29T12:10:16.470Z,20.79
2016-03-29T12:11:16.488Z,20.12
2016-03-29T12:12:16.553Z,21.65
2016-03-29T12:13:16.571Z,20.11
2016-03-29T12:14:16.573Z,19.82
2016-03-29T12:15:16.623Z,21.25
2016-03-29T12:16:16.643Z,21.92
2016-03-29T12:17:16.660Z,21.25
2016-03-29T12:18:16.678Z,20.97
2016-03-29T12:19:16.697Z,20.67
2016-03-29T12:20:16.714Z,20.57
2016-03-29T12:21:16.733Z,20.67
2016-03-29T12:22:16.767Z,20.87
2016-03-29T12:23:16.801Z,21.34
2016-03-29T12:24:16.820Z,21.06
2016-03-29T12:25:16.839Z,20.2
2016-03-29T12:26:16.856Z,20.97
2016-03-29T12:27:16.984Z,20.67
2016-03-29T12:28:16.925Z,20.76
2016-03-29T12:29:16.942Z,22
2016-03-29T12:30:16.977Z,23.26
2016-03-29T12:31:16.980Z,21.53
2016-03-29T12:32:16.997Z,21.34
2016-03-29T12:33:17.032Z,21.73
2016-03-29T12:34:17.050Z,22.5
2016-03-29T12:35:17.083Z,21.36
2016-03-29T12:36:17.118Z,22.03
2016-03-29T12:37:17.135Z,20.3
2016-03-29T12:38:17.154Z,21.84
2016-03-29T12:39:17.188Z,21.65
2016-03-29T12:40:17.190Z,20.12
2016-03-29T12:41:17.224Z,18.87
2016-03-29T12:42:17.431Z,18.38
2016-03-29T12:43:17.262Z,18.76
2016-03-29T12:44:17.296Z,18.76
2016-03-29T12:45:17.315Z,17.99
2016-03-29T12:46:17.348Z,18.86
2016-03-29T12:47:17.366Z,18.66
2016-03-29T12:48:17.385Z,18.38
2016-03-29T12:49:17.403Z,18.95
2016-03-29T12:50:17.437Z,19.06
2016-03-29T12:51:17.471Z,18.38
2016-03-29T12:52:17.489Z,19.53
2016-03-29T12:53:17.507Z,19.15
2016-03-29T12:54:17.541Z,20.3
2016-03-29T12:55:17.559Z,21.65
2016-03-29T12:56:17.578Z,20.5